Time;durP1;ratioP1;P1;durP2;ratioP2;P2;SDS_P1;SDS_P2;PMS_P1;PMS_P2;Temp;Humidity;BMP_temperature;BMP_pressure;BME280_temperature;BME280_humidity;BME280_pressure;Samples;Min_cycle;Max_cycle;Signal;HPM_P1;HPM_P2
2022/08/21 00:02:04;;;;;;;2.10;0.40;;;23.40;58.20;;;;;;5111623;28;20043;-65
2022/08/21 00:04:33;;;;;;;0.98;0.28;;;23.40;58.20;;;;;;5111535;28;20051;-66
2022/08/21 00:06:58;;;;;;;0.55;0.25;;;23.40;58.20;;;;;;5112775;28;20475;-66
2022/08/21 00:09:24;;;;;;;0.70;0.45;;;23.40;58.20;;;;;;5111385;28;20040;-66
2022/08/21 00:11:50;;;;;;;0.63;0.30;;;23.40;58.20;;;;;;5111484;28;20042;-66
2022/08/21 00:14:16;;;;;;;1.02;0.32;;;23.40;58.20;;;;;;5111663;28;20043;-66
2022/08/21 00:16:41;;;;;;;0.68;0.32;;;23.40;58.20;;;;;;5111313;28;20047;-66
2022/08/21 00:19:08;;;;;;;1.08;0.35;;;23.40;58.20;;;;;;5111341;28;20038;-65
2022/08/21 00:21:35;;;;;;;0.52;0.30;;;23.40;58.20;;;;;;5111497;28;20122;-65
2022/08/21 00:24:01;;;;;;;0.93;0.30;;;23.40;58.20;;;;;;5111450;28;20047;-66
2022/08/21 00:26:26;;;;;;;1.85;0.35;;;23.40;58.20;;;;;;5111457;28;20062;-66
2022/08/21 00:28:52;;;;;;;0.77;0.20;;;23.40;58.20;;;;;;5111473;28;20475;-66
2022/08/21 00:31:18;;;;;;;0.60;0.30;;;23.40;58.20;;;;;;5111291;28;20461;-66
2022/08/21 00:33:44;;;;;;;1.05;0.50;;;23.40;58.20;;;;;;5111104;28;20040;-66
2022/08/21 00:36:11;;;;;;;1.25;0.30;;;23.40;58.30;;;;;;5111358;28;20035;-66
2022/08/21 00:38:36;;;;;;;1.33;0.30;;;23.30;58.30;;;;;;5111131;28;20480;-66
2022/08/21 00:41:04;;;;;;;0.47;0.20;;;23.40;58.30;;;;;;5110969;28;20131;-66
2022/08/21 00:43:33;;;;;;;1.27;0.40;;;23.40;58.30;;;;;;5111324;28;20073;-66
2022/08/21 00:46:00;;;;;;;1.27;0.38;;;23.40;58.30;;;;;;5110479;28;20063;-66
2022/08/21 00:48:26;;;;;;;0.73;0.35;;;23.40;58.30;;;;;;5110992;28;20044;-66
2022/08/21 00:50:59;;;;;;;1.00;0.52;;;23.30;58.30;;;;;;5110828;28;20036;-66
2022/08/21 00:53:26;;;;;;;1.00;0.30;;;23.30;58.20;;;;;;5111317;28;20104;-66
2022/08/21 00:55:52;;;;;;;2.80;0.57;;;23.30;58.20;;;;;;5112182;28;20048;-66
2022/08/21 00:58:19;;;;;;;1.13;0.50;;;23.30;58.30;;;;;;5112169;28;20522;-66
2022/08/21 01:00:47;;;;;;;0.88;0.40;;;23.30;58.20;;;;;;5110723;28;20048;-66
2022/08/21 01:03:18;;;;;;;0.80;0.30;;;23.30;58.20;;;;;;5111101;28;20122;-66
2022/08/21 01:05:45;;;;;;;0.65;0.30;;;23.30;58.20;;;;;;5110789;28;20047;-66
2022/08/21 01:08:13;;;;;;;0.77;0.40;;;23.30;58.30;;;;;;5110697;28;20050;-66
2022/08/21 01:10:39;;;;;;;2.15;0.40;;;23.30;58.30;;;;;;5111114;28;20491;-66
2022/08/21 01:13:09;;;;;;;1.83;0.38;;;23.30;58.30;;;;;;5110952;28;20051;-66
2022/08/21 01:15:38;;;;;;;0.75;0.35;;;23.30;58.30;;;;;;5110714;28;20046;-66
2022/08/21 01:18:07;;;;;;;0.40;0.20;;;23.30;58.30;;;;;;5110684;28;20059;-66
2022/08/21 01:20:33;;;;;;;1.35;0.30;;;23.20;58.20;;;;;;5110623;28;20067;-66
2022/08/21 01:23:01;;;;;;;1.05;0.30;;;23.30;58.30;;;;;;5111931;28;20048;-66
2022/08/21 01:25:27;;;;;;;0.70;0.30;;;23.30;58.30;;;;;;5110659;28;20035;-66
2022/08/21 01:27:52;;;;;;;0.85;0.30;;;23.20;58.20;;;;;;5111783;28;20082;-66
2022/08/21 01:30:23;;;;;;;1.17;0.32;;;23.20;58.30;;;;;;5110875;28;20039;-66
2022/08/21 01:32:50;;;;;;;0.55;0.30;;;23.20;58.20;;;;;;5114152;28;20072;-65
2022/08/21 01:35:18;;;;;;;0.73;0.40;;;23.20;58.30;;;;;;5114583;28;20074;-65
2022/08/21 01:37:44;;;;;;;1.25;0.40;;;23.20;58.30;;;;;;5116217;28;20413;-66
2022/08/21 01:40:11;;;;;;;0.70;0.40;;;23.20;58.20;;;;;;5114719;28;20039;-65
2022/08/21 01:42:38;;;;;;;1.20;0.30;;;23.20;58.20;;;;;;5115563;28;20043;-66
2022/08/21 01:45:06;;;;;;;0.40;0.20;;;23.30;58.20;;;;;;5113976;28;20119;-66
2022/08/21 01:47:32;;;;;;;1.33;0.40;;;23.20;58.20;;;;;;5114427;28;20054;-66
2022/08/21 01:49:58;;;;;;;0.63;0.32;;;23.20;58.20;;;;;;5114552;28;20382;-66
2022/08/21 01:52:24;;;;;;;0.68;0.30;;;23.20;58.30;;;;;;5115423;28;20042;-66
2022/08/21 01:54:50;;;;;;;1.25;0.30;;;23.20;58.20;;;;;;5114430;28;20050;-66
2022/08/21 01:57:16;;;;;;;0.60;0.28;;;23.20;58.30;;;;;;5115318;28;20475;-66
2022/08/21 01:59:42;;;;;;;1.13;0.30;;;23.20;58.20;;;;;;5114191;28;20224;-66
2022/08/21 02:02:08;;;;;;;1.48;0.47;;;23.20;58.20;;;;;;5113956;28;20043;-66
2022/08/21 02:04:33;;;;;;;1.67;0.30;;;23.20;58.20;;;;;;5114125;28;20074;-66
2022/08/21 02:07:00;;;;;;;0.65;0.30;;;23.20;58.20;;;;;;5114128;28;20070;-66
2022/08/21 02:09:27;;;;;;;1.30;0.30;;;23.20;58.20;;;;;;5114076;28;20054;-66
2022/08/21 02:11:53;;;;;;;0.95;0.30;;;23.20;58.30;;;;;;5115088;28;20387;-66
2022/08/21 02:14:19;;;;;;;1.20;0.32;;;23.20;58.20;;;;;;5113625;28;20047;-65
2022/08/21 02:16:45;;;;;;;1.30;0.43;;;23.20;58.20;;;;;;5113915;28;20050;-66
2022/08/21 02:19:12;;;;;;;0.50;0.35;;;23.10;58.10;;;;;;5114876;28;20035;-66
2022/08/21 02:21:38;;;;;;;0.52;0.28;;;23.10;58.10;;;;;;5113768;28;20051;-66
2022/08/21 02:24:04;;;;;;;1.50;0.40;;;23.10;58.10;;;;;;5113588;28;20040;-66
2022/08/21 02:26:30;;;;;;;0.70;0.30;;;23.10;58.20;;;;;;5114875;27;20097;-66
2022/08/21 02:28:55;;;;;;;1.13;0.30;;;23.10;58.10;;;;;;5113571;28;20036;-66
2022/08/21 02:31:21;;;;;;;1.45;0.40;;;23.10;58.10;;;;;;5114727;28;20479;-66
2022/08/21 02:33:47;;;;;;;1.08;0.30;;;23.10;58.10;;;;;;5114727;28;20390;-66
2022/08/21 02:36:13;;;;;;;0.63;0.40;;;23.10;58.80;;;;;;5113585;28;20046;-66
2022/08/21 02:38:41;;;;;;;0.88;0.30;;;23.10;58.10;;;;;;5113366;28;20498;-66
2022/08/21 02:41:14;;;;;;;0.93;0.40;;;23.10;58.10;;;;;;5114479;28;20036;-66
2022/08/21 02:43:40;;;;;;;0.77;0.35;;;23.10;58.10;;;;;;5113027;28;20050;-66
2022/08/21 02:46:07;;;;;;;1.33;0.22;;;23.00;58.00;;;;;;5113957;28;20056;-66
2022/08/21 02:48:33;;;;;;;0.93;0.30;;;23.10;58.00;;;;;;5113103;28;20042;-66
2022/08/21 02:51:03;;;;;;;0.43;0.30;;;23.00;58.00;;;;;;5112929;28;20046;-66
2022/08/21 02:53:29;;;;;;;0.85;0.40;;;23.10;58.00;;;;;;5114472;28;20230;-65
2022/08/21 02:55:58;;;;;;;0.60;0.22;;;23.00;58.00;;;;;;5112864;28;20050;-66
2022/08/21 02:58:27;;;;;;;1.63;0.22;;;23.00;58.00;;;;;;5112817;28;20043;-66
2022/08/21 03:00:53;;;;;;;0.50;0.20;;;23.00;58.00;;;;;;5112800;28;20141;-65
2022/08/21 03:03:22;;;;;;;1.00;0.30;;;23.00;58.00;;;;;;5112769;28;20442;-66
2022/08/21 03:05:48;;;;;;;0.50;0.30;;;23.00;58.00;;;;;;5112824;28;20032;-66
2022/08/21 03:08:15;;;;;;;0.98;0.30;;;23.00;58.00;;;;;;5112693;28;20042;-66
2022/08/21 03:10:46;;;;;;;0.98;0.22;;;23.00;58.00;;;;;;5112630;28;20079;-65
2022/08/21 03:13:12;;;;;;;0.63;0.30;;;23.00;58.00;;;;;;5112818;28;20118;-66
2022/08/21 03:15:39;;;;;;;1.08;0.30;;;23.00;58.00;;;;;;5113800;28;20043;-66
2022/08/21 03:18:06;;;;;;;0.77;0.30;;;23.00;58.00;;;;;;5113957;28;20118;-65
2022/08/21 03:20:33;;;;;;;0.52;0.30;;;23.00;58.00;;;;;;5114097;28;20439;-66
2022/08/21 03:23:00;;;;;;;1.05;0.30;;;23.00;57.90;;;;;;5112433;28;20047;-69
2022/08/21 03:25:27;;;;;;;0.77;0.20;;;22.90;57.90;;;;;;5112365;28;20040;-65
2022/08/21 03:27:52;;;;;;;1.08;0.28;;;22.90;57.90;;;;;;5112301;28;20071;-66
2022/08/21 03:30:20;;;;;;;1.50;0.30;;;23.00;57.90;;;;;;5112293;28;20067;-66
2022/08/21 03:32:47;;;;;;;0.70;0.30;;;22.90;57.90;;;;;;5113601;28;20075;-66
2022/08/21 03:35:13;;;;;;;1.15;0.32;;;22.90;57.90;;;;;;5112185;28;20047;-66
2022/08/21 03:37:39;;;;;;;0.65;0.28;;;22.90;57.90;;;;;;5112073;28;20514;-65
2022/08/21 03:40:07;;;;;;;1.10;0.40;;;22.90;57.90;;;;;;5112336;28;20085;-66
2022/08/21 03:42:33;;;;;;;0.80;0.30;;;22.90;58.70;;;;;;5113139;28;20043;-65
2022/08/21 03:44:59;;;;;;;1.15;0.30;;;22.90;57.90;;;;;;5111792;28;20139;-66
2022/08/21 03:47:25;;;;;;;1.35;0.35;;;22.90;57.90;;;;;;5112120;28;20449;-66
2022/08/21 03:49:51;;;;;;;1.42;0.47;;;22.90;57.90;;;;;;5112134;28;20638;-65
2022/08/21 03:52:17;;;;;;;0.75;0.40;;;22.90;57.90;;;;;;5111852;28;20395;-65
2022/08/21 03:54:44;;;;;;;1.88;0.60;;;22.90;57.90;;;;;;5111783;28;20052;-66
2022/08/21 03:57:10;;;;;;;0.90;0.28;;;22.90;57.90;;;;;;5111634;28;20089;-65
2022/08/21 03:59:38;;;;;;;0.68;0.30;;;22.90;58.00;;;;;;5113016;28;20032;-65
2022/08/21 04:02:06;;;;;;;0.50;0.20;;;22.90;58.00;;;;;;5111598;28;20063;-66
2022/08/21 04:04:33;;;;;;;0.80;0.30;;;22.90;58.00;;;;;;5111588;28;20103;-66
2022/08/21 04:06:59;;;;;;;0.77;0.30;;;22.90;58.00;;;;;;5111568;28;20039;-65
2022/08/21 04:09:25;;;;;;;0.63;0.30;;;22.90;58.00;;;;;;5111590;28;20058;-66
2022/08/21 04:11:52;;;;;;;0.98;0.35;;;22.90;58.00;;;;;;5111719;28;20407;-66
2022/08/21 04:14:18;;;;;;;1.02;0.30;;;22.90;58.00;;;;;;5111693;28;20096;-66
2022/08/21 04:16:44;;;;;;;0.85;0.43;;;22.90;58.00;;;;;;5111453;28;20044;-66
2022/08/21 04:19:13;;;;;;;1.40;0.30;;;22.80;57.90;;;;;;5111317;28;20043;-66
2022/08/21 04:21:39;;;;;;;0.70;0.30;;;22.90;58.00;;;;;;5111412;28;20077;-66
2022/08/21 04:24:07;;;;;;;0.93;0.40;;;22.80;57.90;;;;;;5111207;28;20085;-65
2022/08/21 04:26:34;;;;;;;0.57;0.20;;;22.80;57.90;;;;;;5111523;28;20043;-66
2022/08/21 04:29:00;;;;;;;0.43;0.20;;;22.80;57.90;;;;;;5111501;28;20475;-65
2022/08/21 04:31:27;;;;;;;0.80;0.30;;;22.80;57.90;;;;;;5112866;28;20043;-66
2022/08/21 04:33:53;;;;;;;2.42;0.55;;;22.80;58.00;;;;;;5111376;28;20043;-66
2022/08/21 04:36:19;;;;;;;0.77;0.30;;;22.80;58.00;;;;;;5111280;28;20376;-66
2022/08/21 04:38:44;;;;;;;0.93;0.30;;;22.80;58.00;;;;;;5112352;28;20040;-66
2022/08/21 04:41:10;;;;;;;0.50;0.30;;;22.80;58.00;;;;;;5111301;28;20075;-66
2022/08/21 04:43:37;;;;;;;0.45;0.20;;;22.80;58.00;;;;;;5111020;28;20136;-66
2022/08/21 04:46:03;;;;;;;1.08;0.60;;;22.80;58.00;;;;;;5111987;28;20458;-66
2022/08/21 04:48:29;;;;;;;0.65;0.20;;;22.80;58.00;;;;;;5111369;28;20027;-66
2022/08/21 04:53:50;;;;;;;0.85;0.30;;;22.80;58.00;;;;;;5146293;27;1347593;-66
2022/08/21 04:56:25;;;;;;;0.70;0.30;;;22.80;58.00;;;;;;5153174;27;20053;-66
2022/08/21 04:58:55;;;;;;;0.90;0.30;;;22.80;58.00;;;;;;5153006;27;20049;-66
2022/08/21 05:01:24;;;;;;;0.63;0.20;;;22.80;58.00;;;;;;5153026;27;20035;-66
2022/08/21 05:03:53;;;;;;;0.52;0.30;;;22.80;58.00;;;;;;5153192;27;20035;-66
2022/08/21 05:06:20;;;;;;;1.45;0.40;;;22.80;58.70;;;;;;5152850;27;20050;-66
2022/08/21 05:08:48;;;;;;;0.85;0.70;;;22.70;57.90;;;;;;5152814;27;20512;-66
2022/08/21 05:11:14;;;;;;;0.77;0.30;;;22.70;57.90;;;;;;5152885;27;20030;-66
2022/08/21 05:13:41;;;;;;;1.55;0.35;;;22.70;57.90;;;;;;5171506;27;20057;-65
2022/08/21 05:16:07;;;;;;;0.60;0.30;;;22.80;58.00;;;;;;5171421;27;20139;-66
2022/08/21 05:18:32;;;;;;;0.85;0.30;;;22.70;57.90;;;;;;5152761;27;20552;-66
2022/08/21 05:20:58;;;;;;;0.60;0.30;;;22.70;57.90;;;;;;5152563;27;20030;-65
2022/08/21 05:23:24;;;;;;;1.60;0.50;;;22.70;57.90;;;;;;5171290;27;20041;-66
2022/08/21 05:25:51;;;;;;;0.88;0.50;;;22.70;57.90;;;;;;5152826;27;20109;-66
2022/08/21 05:28:17;;;;;;;0.65;0.30;;;22.80;58.00;;;;;;5152893;27;20050;-66
2022/08/21 05:30:43;;;;;;;0.60;0.20;;;22.70;57.90;;;;;;5152703;27;20367;-65
2022/08/21 05:33:09;;;;;;;1.00;0.30;;;22.70;57.90;;;;;;5152495;27;20047;-66
2022/08/21 05:35:37;;;;;;;0.70;0.30;;;22.70;57.80;;;;;;5152562;27;20026;-66
2022/08/21 05:38:03;;;;;;;1.10;0.30;;;22.70;57.90;;;;;;5152251;27;20030;-66
2022/08/21 05:40:29;;;;;;;0.70;0.30;;;22.70;57.80;;;;;;5152504;27;20540;-66
2022/08/21 05:42:55;;;;;;;0.73;0.20;;;22.70;57.80;;;;;;5152186;27;20481;-66
2022/08/21 05:45:23;;;;;;;1.08;0.30;;;22.70;57.90;;;;;;5170746;27;20035;-66
2022/08/21 05:47:49;;;;;;;1.05;0.30;;;22.70;57.80;;;;;;5170842;27;20109;-66
2022/08/21 05:50:14;;;;;;;0.73;0.30;;;22.70;57.80;;;;;;5170779;27;20482;-66
2022/08/21 05:52:40;;;;;;;0.60;0.30;;;22.70;57.80;;;;;;5170309;27;20390;-66
2022/08/21 05:55:06;;;;;;;1.42;0.40;;;22.70;57.80;;;;;;5152264;27;20147;-69
2022/08/21 05:57:31;;;;;;;1.08;0.22;;;22.60;57.70;;;;;;5151865;27;20042;-66
2022/08/21 05:59:57;;;;;;;0.55;0.28;;;22.70;57.80;;;;;;5151944;27;20045;-66
2022/08/21 06:02:23;;;;;;;0.70;0.40;;;22.60;57.70;;;;;;5152147;27;20030;-66
2022/08/21 06:04:48;;;;;;;1.10;0.30;;;22.60;57.70;;;;;;5138562;27;20478;-65
2022/08/21 06:07:14;;;;;;;0.95;0.43;;;22.70;57.80;;;;;;5156459;27;20136;-66
2022/08/21 06:09:41;;;;;;;0.90;0.30;;;22.60;57.70;;;;;;5137973;27;20031;-65
2022/08/21 06:12:09;;;;;;;0.95;0.32;;;22.60;57.70;;;;;;5137708;27;20043;-66
2022/08/21 06:14:36;;;;;;;0.63;0.30;;;22.60;57.70;;;;;;5156603;27;20043;-66
2022/08/21 06:17:11;;;;;;;0.90;0.30;;;22.60;57.70;;;;;;5137969;27;20394;-66
2022/08/21 06:19:38;;;;;;;0.65;0.25;;;22.60;57.70;;;;;;5138223;27;20117;-66
2022/08/21 06:22:04;;;;;;;1.02;0.30;;;22.60;57.70;;;;;;5137786;27;20045;-66
2022/08/21 06:24:30;;;;;;;0.88;0.20;;;22.60;57.70;;;;;;5137723;27;20130;-66
2022/08/21 06:26:56;;;;;;;0.77;0.40;;;22.60;57.70;;;;;;5137802;27;20081;-66
2022/08/21 06:29:22;;;;;;;1.05;0.30;;;22.60;57.70;;;;;;5156160;27;20529;-66
2022/08/21 06:31:50;;;;;;;1.05;0.30;;;22.60;57.70;;;;;;5137558;27;20035;-66
2022/08/21 06:34:16;;;;;;;1.60;0.32;;;22.60;57.70;;;;;;5137464;27;20557;-69
2022/08/21 06:36:41;;;;;;;1.52;0.30;;;22.60;57.70;;;;;;5137503;27;20043;-66
2022/08/21 06:39:07;;;;;;;0.80;0.38;;;22.60;57.70;;;;;;5137382;27;20179;-66
2022/08/21 06:41:33;;;;;;;0.65;0.20;;;22.60;57.70;;;;;;5137550;27;20062;-66
2022/08/21 06:43:59;;;;;;;1.50;0.45;;;22.60;57.70;;;;;;5137159;27;20035;-65
2022/08/21 06:46:27;;;;;;;0.93;0.30;;;22.60;57.70;;;;;;5137505;27;20057;-66
2022/08/21 06:48:53;;;;;;;0.82;0.30;;;22.60;57.80;;;;;;5137427;27;20035;-65
2022/08/21 06:51:18;;;;;;;0.43;0.20;;;22.60;57.80;;;;;;5136932;27;20454;-66
2022/08/21 06:53:44;;;;;;;0.80;0.30;;;22.60;57.70;;;;;;5136823;27;20047;-66
2022/08/21 06:56:12;;;;;;;0.70;0.25;;;22.60;57.70;;;;;;5136942;27;20490;-65
2022/08/21 06:58:38;;;;;;;0.40;0.20;;;22.60;57.80;;;;;;5136910;27;20042;-66
2022/08/21 07:01:04;;;;;;;0.80;0.47;;;22.50;57.60;;;;;;5155634;27;20035;-66
2022/08/21 07:03:36;;;;;;;1.23;0.35;;;22.60;57.70;;;;;;5136952;27;20082;-65
2022/08/21 07:06:04;;;;;;;1.02;0.32;;;22.50;58.40;;;;;;5136819;27;20050;-66
2022/08/21 07:08:30;;;;;;;2.88;0.30;;;22.50;57.70;;;;;;5136655;27;20039;-65
2022/08/21 07:10:59;;;;;;;0.80;0.40;;;22.60;57.70;;;;;;5137049;27;20038;-66
2022/08/21 07:13:25;;;;;;;0.77;0.30;;;22.60;57.70;;;;;;5136574;27;20038;-65
2022/08/21 07:15:50;;;;;;;0.70;0.30;;;22.60;57.80;;;;;;5135902;27;20095;-66
2022/08/21 07:18:16;;;;;;;0.60;0.30;;;22.50;58.40;;;;;;5136573;27;20158;-65
2022/08/21 07:20:43;;;;;;;0.47;0.20;;;22.60;57.70;;;;;;5136541;27;20038;-66
2022/08/21 07:23:14;;;;;;;0.73;0.30;;;22.50;57.70;;;;;;5155085;27;20050;-66
2022/08/21 07:25:40;;;;;;;0.43;0.20;;;22.50;57.70;;;;;;5136605;27;20061;-65
2022/08/21 07:28:06;;;;;;;0.93;0.32;;;22.60;57.80;;;;;;5155165;27;20113;-66
2022/08/21 07:30:31;;;;;;;0.60;0.20;;;22.50;57.70;;;;;;5154888;27;20035;-66
2022/08/21 07:32:57;;;;;;;1.25;0.30;;;22.60;57.80;;;;;;5154787;27;20493;-66
2022/08/21 07:35:23;;;;;;;0.38;0.20;;;22.50;57.70;;;;;;5136444;27;20382;-66
2022/08/21 07:37:49;;;;;;;1.02;0.30;;;22.60;57.80;;;;;;5136120;27;20045;-66
2022/08/21 07:40:16;;;;;;;0.70;0.30;;;22.50;57.70;;;;;;5136341;27;20026;-66
2022/08/21 07:42:44;;;;;;;1.13;0.55;;;22.50;57.70;;;;;;5154705;27;20099;-66
2022/08/21 07:45:10;;;;;;;0.93;0.20;;;22.60;57.80;;;;;;5136048;27;20113;-66
2022/08/21 07:47:36;;;;;;;0.82;0.30;;;22.60;57.80;;;;;;5136046;27;20095;-66
2022/08/21 07:50:03;;;;;;;0.50;0.20;;;22.60;57.80;;;;;;5154395;27;20035;-66
2022/08/21 07:52:29;;;;;;;0.77;0.30;;;22.60;57.80;;;;;;5135687;27;20046;-65
2022/08/21 07:54:54;;;;;;;0.85;0.20;;;22.60;57.80;;;;;;5135704;27;20434;-65
2022/08/21 07:57:20;;;;;;;0.88;0.38;;;22.60;57.80;;;;;;5136233;27;20204;-66
2022/08/21 07:59:45;;;;;;;1.42;0.40;;;22.60;57.80;;;;;;5135723;27;20390;-65
2022/08/21 08:02:22;;;;;;;1.02;0.50;;;22.60;57.80;;;;;;5135784;27;20121;-65
2022/08/21 08:04:47;;;;;;;1.00;0.30;;;22.60;57.80;;;;;;5135780;27;20046;-65
2022/08/21 08:07:13;;;;;;;0.85;0.30;;;22.60;57.80;;;;;;5135647;27;20046;-66
2022/08/21 08:09:39;;;;;;;0.98;0.30;;;22.60;57.80;;;;;;5135802;27;20047;-65
2022/08/21 08:12:04;;;;;;;0.60;0.30;;;22.60;57.80;;;;;;5135558;27;20045;-66
2022/08/21 08:14:31;;;;;;;0.88;0.30;;;22.60;57.80;;;;;;5135763;27;20038;-66
2022/08/21 08:16:56;;;;;;;0.45;0.20;;;22.60;57.80;;;;;;5154068;27;20064;-65
2022/08/21 08:19:22;;;;;;;0.70;0.20;;;22.60;57.70;;;;;;5154037;27;20385;-65
2022/08/21 08:21:48;;;;;;;0.95;0.30;;;22.60;57.80;;;;;;5153799;27;20104;-65
2022/08/21 08:24:14;;;;;;;0.70;0.30;;;22.60;57.70;;;;;;5135587;27;20530;-66
2022/08/21 08:26:40;;;;;;;0.82;0.30;;;22.60;57.70;;;;;;5153770;27;20042;-65
2022/08/21 08:29:05;;;;;;;0.73;0.22;;;22.60;57.80;;;;;;5153841;27;20030;-66
2022/08/21 08:31:31;;;;;;;0.80;0.30;;;22.60;57.70;;;;;;5135448;27;20510;-66
2022/08/21 08:33:56;;;;;;;1.35;0.47;;;22.60;57.70;;;;;;5135352;27;20038;-65
2022/08/21 08:36:32;;;;;;;1.90;0.68;;;22.60;57.80;;;;;;5135381;27;20031;-66
2022/08/21 08:38:58;;;;;;;3.00;0.30;;;22.60;57.70;;;;;;5135172;27;20462;-65
2022/08/21 08:41:23;;;;;;;0.80;0.30;;;22.60;57.70;;;;;;5135090;27;20045;-65
2022/08/21 08:43:53;;;;;;;0.80;0.30;;;22.70;57.70;;;;;;5135106;27;20034;-65
2022/08/21 08:46:43;;;;;;;0.85;0.30;;;22.60;57.60;;;;;;5153587;27;20034;-66
2022/08/21 08:52:25;;;;;;;1.02;0.30;;;22.60;57.50;;;;;;5130167;27;20903;-66
2022/08/21 08:55:16;;;;;;;0.40;0.20;;;22.70;57.60;;;;;;5129065;28;20086;-65
2022/08/21 08:57:43;;;;;;;;;;;22.70;57.60;;;;;;5146591;27;20042;-66
2022/08/21 09:00:12;;;;;;;0.75;0.20;;;22.70;57.50;;;;;;5129012;28;20331;-65
2022/08/21 09:02:40;;;;;;;1.15;0.28;;;22.70;57.50;;;;;;5128825;28;20057;-65
2022/08/21 09:05:07;;;;;;;1.13;0.40;;;22.60;57.50;;;;;;5128796;28;20051;-66
2022/08/21 09:10:36;;;;;;;1.30;0.30;;;22.70;57.50;;;;;;5109848;27;20388;-65
2022/08/21 09:16:24;;;;;;;2.43;0.40;;;22.70;57.40;;;;;;5156081;27;1186831;-65
2022/08/21 09:19:05;;;;;;;1.20;0.30;;;22.70;57.30;;;;;;5152911;27;20050;-66
2022/08/21 09:21:50;;;;;;;;;;;22.70;57.20;;;;;;5153855;27;20094;-66
2022/08/21 09:24:40;;;;;;;0.95;0.30;;;22.80;57.30;;;;;;5153056;27;19915;-65
2022/08/21 09:29:50;;;;;;;1.30;0.30;;;22.80;57.20;;;;;;5130388;27;20358;-65
2022/08/21 09:38:06;;;;;;;1.65;0.40;;;22.80;57.10;;;;;;5130329;27;20177;-65
2022/08/21 09:40:42;;;;;;;1.55;0.40;;;22.90;56.90;;;;;;5129230;28;20036;-65
2022/08/21 09:45:49;;;;;;;2.03;0.28;;;22.90;56.90;;;;;;5130252;27;20353;-65
2022/08/21 09:48:24;;;;;;;1.08;0.28;;;22.90;56.90;;;;;;5128884;28;20043;-66
2022/08/21 09:50:52;;;;;;;2.58;0.45;;;22.90;56.90;;;;;;5146521;27;20043;-66
2022/08/21 09:58:50;;;;;;;1.48;0.20;;;23.00;56.70;;;;;;5128759;27;20047;-66
2022/08/21 10:01:19;;;;;;;2.20;0.50;;;23.00;56.60;;;;;;5129252;28;20039;-65
2022/08/21 10:03:46;;;;;;;1.45;0.20;;;23.10;56.60;;;;;;5128875;28;20057;-65
2022/08/21 10:06:23;;;;;;;0.85;0.20;;;23.10;56.50;;;;;;5130232;27;20031;-65
2022/08/21 10:08:49;;;;;;;0.68;0.20;;;23.10;56.40;;;;;;5130007;27;20429;-66
2022/08/21 10:11:24;;;;;;;1.10;0.40;;;23.10;56.40;;;;;;5128752;27;20046;-65
2022/08/21 10:14:08;;;;;;;1.45;0.30;;;23.10;56.40;;;;;;5128591;28;20074;-66
2022/08/21 10:27:58;;;;;;;1.65;0.30;;;23.20;56.40;;;;;;5109816;27;20359;-66
2022/08/21 10:41:51;;;;;;;1.90;0.30;;;23.20;56.30;;;;;;5130254;27;20403;-65
2022/08/21 10:44:30;;;;;;;0.70;0.30;;;23.20;56.30;;;;;;5128834;28;20048;-65
2022/08/21 10:49:57;;;;;;;0.85;0.20;;;23.20;56.20;;;;;;5089513;28;20418;-65
2022/08/21 10:55:22;;;;;;;0.52;0.20;;;23.20;56.20;;;;;;5089339;27;20405;-65
2022/08/21 11:00:51;;;;;;;0.40;0.20;;;23.20;56.20;;;;;;5130216;27;20751;-65
2022/08/21 11:03:30;;;;;;;1.35;0.30;;;23.20;56.30;;;;;;5128975;28;20114;-65
2022/08/21 11:06:05;;;;;;;1.52;0.20;;;23.20;56.40;;;;;;5128881;28;20070;-65
2022/08/21 11:08:39;;;;;;;0.80;0.30;;;23.30;56.40;;;;;;5128874;28;20098;-65
2022/08/21 11:11:10;;;;;;;1.23;0.20;;;23.20;56.50;;;;;;5129188;28;20054;-65
2022/08/21 11:13:45;;;;;;;1.33;0.30;;;23.20;56.50;;;;;;5130587;27;20414;-65
2022/08/21 11:16:22;;;;;;;1.52;0.40;;;23.20;56.50;;;;;;5128655;28;20062;-65
2022/08/21 11:19:27;;;;;;;1.10;0.32;;;23.20;56.50;;;;;;5129945;27;20082;-65
2022/08/21 11:30:17;;;;;;;1.08;0.20;;;23.20;57.30;;;;;;5109885;27;20923;-65
2022/08/21 11:33:13;;;;;;;1.30;0.30;;;23.20;56.60;;;;;;5091587;28;20044;-66
2022/08/21 11:43:47;;;;;;;0.88;0.30;;;23.20;56.60;;;;;;5130296;27;20136;-65
2022/08/21 11:51:46;;;;;;;0.77;0.20;;;23.20;56.70;;;;;;5130284;27;20177;-65
2022/08/21 11:54:37;;;;;;;1.05;0.20;;;23.20;56.70;;;;;;5128907;28;20096;-65
2022/08/21 11:57:13;;;;;;;0.70;0.20;;;23.20;56.70;;;;;;5128685;27;20071;-65
2022/08/21 11:59:46;;;;;;;0.85;0.17;;;23.20;56.80;;;;;;5129234;28;20425;-66
2022/08/21 12:02:17;;;;;;;0.80;0.30;;;23.20;56.80;;;;;;5130028;27;20049;-65
2022/08/21 12:04:51;;;;;;;2.75;0.57;;;23.20;56.80;;;;;;5128834;28;20036;-66
2022/08/21 12:07:31;;;;;;;0.98;0.30;;;23.20;56.80;;;;;;5130021;27;20096;-65
2022/08/21 12:09:58;;;;;;;0.75;0.30;;;23.20;56.80;;;;;;5111716;28;20047;-66
2022/08/21 12:12:30;;;;;;;1.83;0.40;;;23.20;56.80;;;;;;5128690;28;20035;-66
2022/08/21 12:15:25;;;;;;;2.85;0.22;;;23.20;56.90;;;;;;5128485;28;20043;-65
2022/08/21 12:20:41;;;;;;;1.65;0.30;;;23.20;56.80;;;;;;5130326;27;20350;-65
2022/08/21 12:26:26;;;;;;;0.88;0.20;;;23.20;56.90;;;;;;5089518;28;20414;-66
2022/08/21 12:29:04;;;;;;;0.70;0.30;;;23.20;56.90;;;;;;5105353;28;20044;-66
2022/08/21 12:31:30;;;;;;;0.80;0.17;;;23.20;56.90;;;;;;5088314;28;20496;-65
2022/08/21 12:33:59;;;;;;;0.80;0.20;;;23.30;56.90;;;;;;5088262;28;20066;-65
2022/08/21 12:36:48;;;;;;;1.10;0.28;;;23.30;56.90;;;;;;5088300;28;20048;-65
2022/08/21 12:39:21;;;;;;;2.20;0.28;;;23.30;56.90;;;;;;5087855;28;20112;-65
2022/08/21 12:42:00;;;;;;;1.20;0.30;;;23.30;56.90;;;;;;5088262;28;20040;-66
2022/08/21 12:44:48;;;;;;;1.37;0.30;;;23.30;56.90;;;;;;5087805;28;20090;-66
2022/08/21 12:52:47;;;;;;;1.55;0.30;;;23.30;56.90;;;;;;5130202;27;20759;-65
2022/08/21 12:55:15;;;;;;;1.63;0.30;;;23.30;56.90;;;;;;5130356;27;20039;-65
2022/08/21 12:57:42;;;;;;;0.85;0.40;;;23.30;56.90;;;;;;5129253;28;20171;-66
2022/08/21 13:00:12;;;;;;;0.77;0.20;;;23.30;57.00;;;;;;5129115;28;20040;-65
2022/08/21 13:02:43;;;;;;;1.25;0.30;;;23.30;56.90;;;;;;5129125;28;20436;-65
2022/08/21 13:05:14;;;;;;;2.10;0.20;;;23.30;57.00;;;;;;5128910;28;20052;-65
2022/08/21 13:07:45;;;;;;;1.58;0.20;;;23.30;56.90;;;;;;5129003;28;20440;-65
2022/08/21 13:10:30;;;;;;;2.45;0.30;;;23.40;57.00;;;;;;5146098;27;20052;-65
2022/08/21 13:12:59;;;;;;;0.98;0.20;;;23.40;57.00;;;;;;5128935;28;20027;-65
2022/08/21 13:15:28;;;;;;;1.15;0.20;;;23.40;57.10;;;;;;5128860;28;20115;-66
2022/08/21 13:17:54;;;;;;;1.92;0.28;;;23.40;57.10;;;;;;5128757;28;20547;-65
2022/08/21 13:23:06;;;;;;;1.13;0.28;;;23.40;57.10;;;;;;5151016;27;20110;-65
2022/08/21 13:25:36;;;;;;;0.40;0.10;;;23.40;57.10;;;;;;5129343;28;20043;-65
2022/08/21 13:28:12;;;;;;;0.65;0.40;;;23.40;57.10;;;;;;5130281;27;20491;-66
2022/08/21 13:30:43;;;;;;;1.20;0.30;;;23.40;57.10;;;;;;5128838;28;20071;-65
2022/08/21 13:33:10;;;;;;;1.55;0.30;;;23.40;57.10;;;;;;5129351;28;20112;-65
2022/08/21 13:35:48;;;;;;;0.80;0.40;;;23.40;57.10;;;;;;5128791;28;20470;-65
2022/08/21 13:38:15;;;;;;;0.95;0.30;;;23.40;57.10;;;;;;5129024;28;20051;-66
2022/08/21 13:43:31;;;;;;;1.83;0.30;;;23.40;57.10;;;;;;5130326;27;20411;-65
2022/08/21 13:45:59;;;;;;;0.63;0.20;;;23.40;57.10;;;;;;5130681;27;20122;-65
2022/08/21 13:48:29;;;;;;;0.95;0.40;;;23.40;57.10;;;;;;5129280;27;20069;-66
2022/08/21 13:50:55;;;;;;;;;;;23.40;57.10;;;;;;5129654;28;20074;-65
2022/08/21 13:56:02;;;;;;;1.48;0.20;;;23.50;57.20;;;;;;5130201;27;20349;-65
2022/08/21 13:58:32;;;;;;;0.82;0.30;;;23.50;57.20;;;;;;5130233;27;20035;-65
2022/08/21 14:01:00;;;;;;;1.98;0.30;;;23.50;57.20;;;;;;5128980;28;20036;-65
2022/08/21 14:03:41;;;;;;;1.35;0.57;;;23.40;57.10;;;;;;5129133;28;20062;-66
2022/08/21 14:06:25;;;;;;;1.10;0.25;;;23.40;57.10;;;;;;5129021;28;20054;-66
2022/08/21 14:08:56;;;;;;;1.95;0.30;;;23.50;57.20;;;;;;5129064;28;20053;-65
2022/08/21 14:11:22;;;;;;;0.80;0.38;;;23.50;57.20;;;;;;5129266;28;20094;-65
2022/08/21 14:16:55;;;;;;;1.23;0.30;;;23.50;57.30;;;;;;5130216;27;20082;-65
2022/08/21 14:19:25;;;;;;;1.00;0.30;;;23.50;57.30;;;;;;5128925;28;20039;-65
2022/08/21 14:21:50;;;;;;;0.77;0.30;;;23.50;57.30;;;;;;5128907;28;20035;-65
2022/08/21 14:27:19;;;;;;;1.27;0.30;;;23.50;57.30;;;;;;5130131;27;20378;-65
2022/08/21 14:29:44;;;;;;;1.33;0.30;;;23.50;57.40;;;;;;5129238;28;20044;-65
2022/08/21 14:32:19;;;;;;;1.05;0.20;;;23.50;57.40;;;;;;5129048;28;20039;-65
2022/08/21 14:34:45;;;;;;;1.70;0.50;;;23.50;57.40;;;;;;5129105;28;20036;-65
2022/08/21 14:37:10;;;;;;;0.95;0.20;;;23.50;57.40;;;;;;5129211;28;20039;-66
2022/08/21 14:39:36;;;;;;;0.75;0.20;;;23.50;57.40;;;;;;5163420;27;20448;-66
2022/08/21 14:42:02;;;;;;;1.52;0.28;;;23.50;57.40;;;;;;5163515;27;20082;-66
2022/08/21 14:44:28;;;;;;;0.93;0.20;;;23.50;57.40;;;;;;5129905;27;20043;-66